createdAt,value
2023-01-21T00:00:31.462Z,5.43
2023-01-21T00:03:00.095Z,4.63
2023-01-21T00:05:27.496Z,5.93
2023-01-21T00:07:54.745Z,5.22
2023-01-21T00:10:22.052Z,5.95
2023-01-21T00:12:49.316Z,6.07
2023-01-21T00:15:16.900Z,6.10
2023-01-21T00:17:44.166Z,5.85
2023-01-21T00:20:14.539Z,4.95
2023-01-21T00:22:41.986Z,5.80
2023-01-21T00:25:09.604Z,5.53
2023-01-21T00:27:37.092Z,5.97
2023-01-21T00:30:05.147Z,5.35
2023-01-21T00:32:32.417Z,5.57
2023-01-21T00:34:59.653Z,5.45
2023-01-21T00:37:28.220Z,5.22
2023-01-21T00:39:55.484Z,5.43
2023-01-21T00:42:22.735Z,5.30
2023-01-21T00:44:49.976Z,5.50
2023-01-21T00:47:17.219Z,5.15
2023-01-21T00:49:44.487Z,5.63
2023-01-21T00:52:11.793Z,4.53
2023-01-21T00:54:40.362Z,4.33
2023-01-21T00:57:08.461Z,4.90
2023-01-21T00:59:35.826Z,4.25
2023-01-21T01:02:03.081Z,5.28
2023-01-21T01:04:30.305Z,5.07
2023-01-21T01:06:57.728Z,4.90
2023-01-21T01:09:25.063Z,4.57
2023-01-21T01:11:53.859Z,5.35
2023-01-21T01:14:22.224Z,4.30
2023-01-21T01:16:49.603Z,3.00
2023-01-21T01:19:17.132Z,5.25
2023-01-21T01:21:44.705Z,5.22
2023-01-21T01:24:12.019Z,4.90
2023-01-21T01:26:42.211Z,5.20
2023-01-21T01:29:12.975Z,4.90
2023-01-21T01:31:40.658Z,5.70
2023-01-21T01:34:07.970Z,5.78
2023-01-21T01:36:35.221Z,6.65
2023-01-21T01:39:02.466Z,7.15
2023-01-21T01:41:32.192Z,6.38
2023-01-21T01:44:01.165Z,6.00
2023-01-21T01:46:31.953Z,7.10
2023-01-21T01:49:06.410Z,6.87
2023-01-21T01:51:41.569Z,6.68
2023-01-21T01:54:10.828Z,6.63
2023-01-21T01:56:40.172Z,7.05
2023-01-21T01:59:07.619Z,5.82
2023-01-21T02:01:36.788Z,7.03
2023-01-21T02:04:07.872Z,6.32
2023-01-21T02:06:35.607Z,6.82
2023-01-21T02:09:03.904Z,7.28
2023-01-21T02:11:31.195Z,7.32
2023-01-21T02:13:59.632Z,6.93
2023-01-21T02:16:46.159Z,6.70
2023-01-21T02:19:40.480Z,5.85
2023-01-21T02:22:18.522Z,7.05
2023-01-21T02:25:21.776Z,6.07
2023-01-21T02:27:54.742Z,6.13
2023-01-21T02:31:03.334Z,6.75
2023-01-21T02:33:54.008Z,6.70
2023-01-21T02:36:32.357Z,7.28
2023-01-21T02:39:06.626Z,7.13
2023-01-21T02:41:48.935Z,7.65
2023-01-21T02:44:24.735Z,6.95
2023-01-21T02:46:59.109Z,7.32
2023-01-21T02:49:34.012Z,6.47
2023-01-21T02:52:01.261Z,7.00
2023-01-21T02:54:50.726Z,6.75
2023-01-21T02:57:24.432Z,5.55
2023-01-21T02:59:54.333Z,6.85
2023-01-21T03:02:34.894Z,6.73
2023-01-21T03:05:12.245Z,7.30
2023-01-21T03:07:46.448Z,6.45
2023-01-21T03:10:24.018Z,6.88
2023-01-21T03:13:00.187Z,7.18
2023-01-21T03:15:50.409Z,6.03
2023-01-21T03:18:24.278Z,6.18
2023-01-21T03:20:56.596Z,7.10
2023-01-21T03:23:28.457Z,6.97
2023-01-21T03:25:57.368Z,6.50
2023-01-21T03:28:29.381Z,6.23
2023-01-21T03:31:02.916Z,7.30
2023-01-21T03:33:33.412Z,6.85
2023-01-21T03:36:08.976Z,7.28
2023-01-21T03:38:41.956Z,6.20
2023-01-21T03:41:13.755Z,7.03
2023-01-21T03:43:41.211Z,6.43
2023-01-21T03:46:15.857Z,6.10
2023-01-21T03:48:47.721Z,5.82
2023-01-21T03:51:20.564Z,5.82
2023-01-21T03:53:52.998Z,6.20
2023-01-21T03:56:20.282Z,6.88
2023-01-21T03:58:47.577Z,6.47
2023-01-21T04:01:14.876Z,6.90
2023-01-21T04:03:43.404Z,6.00
2023-01-21T04:06:13.971Z,6.20
2023-01-21T04:08:42.770Z,5.97
2023-01-21T04:11:10.180Z,5.63
2023-01-21T04:13:37.536Z,6.43
2023-01-21T04:16:05.496Z,6.10
2023-01-21T04:18:32.829Z,5.10
2023-01-21T04:21:00.129Z,6.65
2023-01-21T04:23:27.393Z,5.28
2023-01-21T04:25:56.062Z,5.80
2023-01-21T04:28:23.391Z,5.43
2023-01-21T04:30:50.690Z,5.40
2023-01-21T04:33:18.095Z,5.72
2023-01-21T04:35:45.381Z,5.05
2023-01-21T04:38:13.087Z,5.05
2023-01-21T04:40:40.339Z,5.15
2023-01-21T04:43:08.944Z,2.97
2023-01-21T04:45:36.274Z,4.57
2023-01-21T04:48:03.659Z,4.65
2023-01-21T04:50:30.904Z,4.40
2023-01-21T04:52:58.138Z,3.67
2023-01-21T04:55:26.426Z,3.80
2023-01-21T04:57:53.811Z,4.00
2023-01-21T05:00:22.934Z,4.18
2023-01-21T05:02:50.171Z,4.57
2023-01-21T05:05:17.505Z,3.50
2023-01-21T05:07:44.762Z,4.27
2023-01-21T05:10:17.056Z,4.22
2023-01-21T05:12:44.457Z,4.28
2023-01-21T05:15:12.309Z,4.50
2023-01-21T05:17:40.921Z,4.13
2023-01-21T05:20:09.658Z,4.25
2023-01-21T05:22:37.014Z,3.88
2023-01-21T05:25:04.980Z,4.75
2023-01-21T05:27:32.223Z,4.20
2023-01-21T05:29:59.479Z,4.17
2023-01-21T05:32:26.785Z,4.80
2023-01-21T05:34:55.342Z,4.75
2023-01-21T05:37:22.623Z,4.65
2023-01-21T05:39:49.891Z,4.63
2023-01-21T05:42:17.139Z,4.23
2023-01-21T05:44:44.372Z,4.18
2023-01-21T05:47:11.676Z,4.30
2023-01-21T05:49:38.956Z,4.10
2023-01-21T05:52:07.537Z,5.00
2023-01-21T05:54:34.796Z,3.92
2023-01-21T05:57:02.157Z,4.25
2023-01-21T05:59:29.402Z,4.70
2023-01-21T06:01:57.167Z,4.00
2023-01-21T06:04:30.359Z,4.67
2023-01-21T06:06:57.940Z,5.03
2023-01-21T06:09:26.560Z,5.03
2023-01-21T06:11:53.872Z,5.28
2023-01-21T06:14:21.140Z,4.80
2023-01-21T06:16:48.388Z,5.10
2023-01-21T06:19:15.634Z,4.55
2023-01-21T06:21:42.877Z,5.43
2023-01-21T06:24:10.141Z,5.32
2023-01-21T06:26:38.697Z,5.50
2023-01-21T06:29:06.019Z,5.90
2023-01-21T06:31:33.372Z,3.95
2023-01-21T06:34:00.644Z,5.80
2023-01-21T06:36:27.892Z,6.55
2023-01-21T06:38:55.149Z,4.87
2023-01-21T06:41:22.431Z,6.53
2023-01-21T06:43:51.033Z,6.53
2023-01-21T06:46:18.519Z,6.60
2023-01-21T06:48:46.129Z,6.53
2023-01-21T06:51:13.445Z,6.80
2023-01-21T06:53:40.728Z,6.82
2023-01-21T06:56:07.966Z,6.43
2023-01-21T06:58:35.261Z,7.07
2023-01-21T07:01:03.968Z,7.32
2023-01-21T07:03:31.222Z,6.07
2023-01-21T07:05:58.461Z,7.70
2023-01-21T07:08:25.736Z,7.30
2023-01-21T07:10:52.961Z,7.13
2023-01-21T07:13:20.193Z,7.60
2023-01-21T07:15:47.440Z,7.70
2023-01-21T07:18:16.375Z,7.53
2023-01-21T07:20:43.670Z,8.45
2023-01-21T07:23:10.918Z,8.05
2023-01-21T07:25:38.254Z,8.13
2023-01-21T07:28:05.510Z,8.40
2023-01-21T07:30:32.970Z,6.95
2023-01-21T07:33:05.279Z,7.85
2023-01-21T07:35:33.993Z,6.22
2023-01-21T07:38:01.338Z,7.20
2023-01-21T07:40:28.607Z,8.47
2023-01-21T07:42:56.358Z,8.03
2023-01-21T07:45:24.761Z,9.32
2023-01-21T07:47:52.100Z,8.52
2023-01-21T07:50:19.455Z,7.88
2023-01-21T07:52:48.091Z,9.17
2023-01-21T07:55:16.666Z,8.32
2023-01-21T07:57:44.189Z,6.85
2023-01-21T08:00:12.574Z,8.80
2023-01-21T08:02:40.383Z,9.35
2023-01-21T08:05:08.428Z,10.23
2023-01-21T08:07:35.889Z,8.98
2023-01-21T08:10:05.128Z,9.07
2023-01-21T08:12:32.479Z,9.00
2023-01-21T08:14:59.713Z,8.63
2023-01-21T08:17:27.247Z,8.73
2023-01-21T08:19:54.530Z,8.68
2023-01-21T08:22:21.822Z,10.32
2023-01-21T08:24:49.087Z,8.30
2023-01-21T08:27:17.720Z,9.13
2023-01-21T08:29:45.034Z,8.17
2023-01-21T08:32:12.285Z,7.47
2023-01-21T08:34:39.595Z,8.00
2023-01-21T08:37:06.900Z,8.52
2023-01-21T08:39:34.157Z,8.75
2023-01-21T08:42:01.402Z,7.90
2023-01-21T08:44:29.988Z,7.18
2023-01-21T08:46:57.310Z,8.07
2023-01-21T08:49:24.626Z,7.95
2023-01-21T08:51:52.112Z,8.77
2023-01-21T08:54:19.675Z,8.80
2023-01-21T08:56:47.049Z,7.55
2023-01-21T08:59:14.291Z,6.57
2023-01-21T09:01:43.556Z,7.60
2023-01-21T09:04:10.908Z,8.43
2023-01-21T09:06:38.257Z,6.70
2023-01-21T09:09:05.514Z,7.82
2023-01-21T09:11:32.811Z,8.00
2023-01-21T09:14:03.421Z,7.88
2023-01-21T09:16:31.813Z,7.82
2023-01-21T09:19:01.108Z,7.40
2023-01-21T09:21:29.491Z,6.65
2023-01-21T09:23:57.043Z,8.25
2023-01-21T09:26:24.996Z,8.02
2023-01-21T09:28:54.209Z,7.90
2023-01-21T09:31:23.379Z,7.73
2023-01-21T09:33:53.010Z,8.13
2023-01-21T09:36:23.178Z,8.55
2023-01-21T09:38:51.689Z,7.80
2023-01-21T09:41:24.873Z,7.95
2023-01-21T09:44:01.538Z,7.20
2023-01-21T09:46:34.931Z,7.63
2023-01-21T09:49:05.376Z,7.97
2023-01-21T09:51:46.181Z,5.78
2023-01-21T09:54:20.776Z,7.72
2023-01-21T09:57:00.111Z,7.60
2023-01-21T09:59:39.998Z,8.52
2023-01-21T10:02:18.004Z,8.15
2023-01-21T10:04:52.440Z,7.20
2023-01-21T10:07:27.735Z,7.70
2023-01-21T10:10:06.921Z,7.83
2023-01-21T10:12:50.894Z,7.30
2023-01-21T10:15:35.418Z,7.68
2023-01-21T10:18:07.867Z,8.40
2023-01-21T10:20:43.315Z,7.22
2023-01-21T10:23:18.405Z,8.07
2023-01-21T10:25:48.933Z,7.95
2023-01-21T10:28:21.298Z,6.55
2023-01-21T10:30:51.893Z,7.40
2023-01-21T10:33:21.466Z,7.38
2023-01-21T10:36:05.401Z,7.27
2023-01-21T10:38:39.935Z,7.10
2023-01-21T10:41:23.327Z,7.55
2023-01-21T10:43:58.847Z,7.57
2023-01-21T10:46:32.547Z,6.80
2023-01-21T10:49:12.183Z,6.90
2023-01-21T10:51:47.178Z,6.65
2023-01-21T10:54:22.730Z,7.65
2023-01-21T10:56:57.515Z,8.43
2023-01-21T10:59:32.229Z,7.82
2023-01-21T11:02:13.187Z,8.23
2023-01-21T11:04:41.754Z,7.78
2023-01-21T11:07:12.648Z,8.02
2023-01-21T11:09:45.547Z,7.60
2023-01-21T11:12:17.233Z,6.20
2023-01-21T11:14:48.488Z,6.93
2023-01-21T11:17:30.822Z,7.47
2023-01-21T11:19:59.767Z,7.82
2023-01-21T11:22:30.077Z,7.30
2023-01-21T11:24:59.844Z,7.82
2023-01-21T11:27:35.300Z,7.43
2023-01-21T11:30:05.191Z,6.63
2023-01-21T11:32:35.408Z,7.40
2023-01-21T11:35:09.638Z,6.88
2023-01-21T11:37:38.129Z,6.65
2023-01-21T11:40:13.831Z,7.23
2023-01-21T11:42:47.407Z,6.43
2023-01-21T11:45:27.437Z,6.80
2023-01-21T11:47:55.101Z,7.00
2023-01-21T11:50:27.458Z,5.82
2023-01-21T11:53:13.999Z,6.17
2023-01-21T11:55:45.878Z,7.03
2023-01-21T11:58:19.025Z,6.22
2023-01-21T12:00:48.913Z,5.93
2023-01-21T12:03:19.392Z,6.22
2023-01-21T12:05:50.931Z,5.97
2023-01-21T12:08:23.197Z,6.15
2023-01-21T12:10:54.693Z,6.25
2023-01-21T12:13:27.449Z,5.82
2023-01-21T12:16:25.239Z,5.85
2023-01-21T12:19:17.774Z,4.80
2023-01-21T12:22:09.993Z,5.38
2023-01-21T12:24:53.767Z,5.40
2023-01-21T12:27:27.995Z,5.30
2023-01-21T12:30:06.456Z,5.35
2023-01-21T12:32:38.404Z,3.70
2023-01-21T12:35:11.200Z,4.03
2023-01-21T12:37:46.762Z,4.57
2023-01-21T12:40:18.575Z,3.60
2023-01-21T12:42:51.796Z,3.53
2023-01-21T12:45:22.274Z,2.83
2023-01-21T12:47:55.203Z,4.35
2023-01-21T12:50:29.556Z,4.30
2023-01-21T12:53:05.967Z,3.47
2023-01-21T12:55:56.772Z,3.47
2023-01-21T12:58:30.354Z,3.33
2023-01-21T13:01:02.606Z,2.55
2023-01-21T13:03:41.936Z,3.20
2023-01-21T13:06:13.754Z,2.45
2023-01-21T13:08:54.284Z,3.47
2023-01-21T13:11:26.028Z,2.90
2023-01-21T13:14:17.313Z,2.08
2023-01-21T13:16:50.164Z,1.55
2023-01-21T13:19:17.379Z,2.83
2023-01-21T13:21:52.773Z,2.83
2023-01-21T13:24:25.525Z,2.83
2023-01-21T13:27:02.557Z,2.67
2023-01-21T13:29:41.438Z,2.97
2023-01-21T13:32:27.267Z,2.90
2023-01-21T13:35:06.625Z,2.50
2023-01-21T13:37:40.934Z,2.37
2023-01-21T13:40:32.852Z,2.47
2023-01-21T13:43:11.798Z,2.67
2023-01-21T13:45:52.102Z,1.58
2023-01-21T13:49:01.154Z,2.55
2023-01-21T13:51:43.275Z,3.17
2023-01-21T13:54:29.492Z,2.40
2023-01-21T13:57:13.191Z,3.25
2023-01-21T13:59:46.031Z,2.67
2023-01-21T14:02:21.404Z,1.60
2023-01-21T14:04:55.469Z,2.53
2023-01-21T14:07:27.621Z,1.85
2023-01-21T14:10:01.520Z,1.92
2023-01-21T14:12:42.886Z,2.22
2023-01-21T14:15:34.549Z,2.22
2023-01-21T14:18:31.921Z,1.77
2023-01-21T14:21:22.561Z,2.10
2023-01-21T14:23:59.597Z,2.20
2023-01-21T14:26:55.045Z,1.50
2023-01-21T14:29:33.010Z,2.03
2023-01-21T14:32:05.018Z,2.10
2023-01-21T14:34:43.457Z,2.30
2023-01-21T14:37:15.167Z,2.00
2023-01-21T14:39:51.384Z,1.45
2023-01-21T14:42:25.024Z,1.75
2023-01-21T14:45:03.966Z,1.47
2023-01-21T14:47:45.450Z,1.50
2023-01-21T14:50:46.083Z,1.80
2023-01-21T14:53:19.539Z,1.73
2023-01-21T14:56:04.836Z,1.80
2023-01-21T14:58:33.781Z,1.23
2023-01-21T15:01:01.683Z,1.10
2023-01-21T15:03:31.378Z,0.73
2023-01-21T15:06:07.437Z,1.15
2023-01-21T15:08:45.568Z,0.93
2023-01-21T15:11:20.788Z,1.10
2023-01-21T15:14:00.359Z,1.25
2023-01-21T15:16:35.411Z,1.50
2023-01-21T15:19:29.215Z,1.58
2023-01-21T15:22:37.748Z,1.27
2023-01-21T15:25:34.307Z,1.40
2023-01-21T15:28:35.198Z,1.20
2023-01-21T15:31:05.656Z,1.15
2023-01-21T15:33:39.213Z,1.20
2023-01-21T15:36:24.773Z,1.05
2023-01-21T15:38:57.317Z,1.43
2023-01-21T15:41:28.115Z,1.35
2023-01-21T15:44:07.345Z,1.40
2023-01-21T15:46:43.730Z,0.90
2023-01-21T15:49:26.428Z,1.45
2023-01-21T15:52:03.846Z,1.20
2023-01-21T15:54:39.644Z,1.70
2023-01-21T15:57:21.637Z,1.35
2023-01-21T16:00:12.048Z,1.00
2023-01-21T16:02:51.931Z,1.40
2023-01-21T16:05:27.844Z,1.50
2023-01-21T16:08:07.773Z,1.20
2023-01-21T16:10:46.405Z,1.45
2023-01-21T16:13:23.158Z,1.60
2023-01-21T16:16:02.887Z,1.70
2023-01-21T16:18:39.031Z,1.50
2023-01-21T16:21:06.557Z,1.70
2023-01-21T16:23:38.856Z,1.67
2023-01-21T16:26:07.767Z,1.33
2023-01-21T16:28:43.146Z,1.70
2023-01-21T16:31:10.722Z,2.00
2023-01-21T16:33:38.182Z,2.10
2023-01-21T16:36:07.775Z,1.48
2023-01-21T16:38:37.280Z,1.52
2023-01-21T16:41:27.449Z,1.75
2023-01-21T16:43:58.982Z,1.70
2023-01-21T16:46:29.239Z,1.30
2023-01-21T16:48:58.746Z,1.40
2023-01-21T16:51:30.070Z,2.00
2023-01-21T16:54:22.501Z,1.80
2023-01-21T16:56:54.642Z,2.50
2023-01-21T16:59:25.424Z,2.00
2023-01-21T17:01:54.065Z,1.90
2023-01-21T17:04:21.561Z,2.03
2023-01-21T17:06:49.250Z,2.22
2023-01-21T17:09:27.809Z,3.10
2023-01-21T17:12:00.481Z,2.08
2023-01-21T17:14:30.438Z,4.25
2023-01-21T17:17:00.297Z,1.98
2023-01-21T17:19:32.050Z,1.95
2023-01-21T17:22:01.752Z,1.80
2023-01-21T17:24:34.155Z,2.80
2023-01-21T17:27:07.877Z,8.05
2023-01-21T17:29:35.555Z,3.15
2023-01-21T17:32:05.442Z,2.33
2023-01-21T17:34:34.793Z,2.53
2023-01-21T17:37:02.755Z,1.95
2023-01-21T17:40:01.172Z,2.05
2023-01-21T17:42:36.556Z,2.15
2023-01-21T17:45:05.119Z,2.00
2023-01-21T17:47:34.403Z,2.33
2023-01-21T17:50:16.536Z,3.92
2023-01-21T17:52:51.199Z,2.90
2023-01-21T17:55:31.096Z,2.30
2023-01-21T17:58:04.548Z,2.92
2023-01-21T18:00:41.024Z,1.83
2023-01-21T18:03:09.163Z,2.17
2023-01-21T18:05:38.426Z,2.40
2023-01-21T18:08:13.010Z,2.55
2023-01-21T18:10:40.958Z,2.83
2023-01-21T18:13:13.277Z,3.40
2023-01-21T18:15:41.723Z,3.80
2023-01-21T18:18:16.597Z,21.48
2023-01-21T18:20:44.869Z,6.15
2023-01-21T18:23:13.458Z,4.28
2023-01-21T18:25:42.341Z,2.47
2023-01-21T18:28:16.891Z,1.88
2023-01-21T18:30:44.443Z,3.10
2023-01-21T18:33:12.620Z,2.15
2023-01-21T18:35:43.093Z,2.25
2023-01-21T18:38:11.677Z,2.87
2023-01-21T18:40:40.229Z,2.50
2023-01-21T18:43:08.804Z,2.13
2023-01-21T18:45:38.872Z,2.45
2023-01-21T18:48:10.285Z,2.85
2023-01-21T18:50:37.687Z,4.13
2023-01-21T18:53:06.135Z,2.75
2023-01-21T18:55:34.231Z,2.58
2023-01-21T18:58:02.629Z,2.53
2023-01-21T19:00:33.197Z,2.22
2023-01-21T19:03:02.007Z,2.37
2023-01-21T19:05:33.974Z,2.00
2023-01-21T19:08:02.181Z,2.17
2023-01-21T19:10:29.771Z,2.15
2023-01-21T19:12:57.736Z,2.10
2023-01-21T19:15:28.260Z,2.47
2023-01-21T19:17:56.776Z,2.83
2023-01-21T19:20:26.899Z,2.75
2023-01-21T19:22:55.876Z,2.30
2023-01-21T19:25:25.979Z,1.85
2023-01-21T19:27:55.797Z,1.73
2023-01-21T19:30:25.172Z,2.20
2023-01-21T19:32:54.378Z,2.13
2023-01-21T19:35:29.629Z,2.08
2023-01-21T19:37:57.867Z,1.83
2023-01-21T19:40:27.649Z,2.13
2023-01-21T19:42:55.732Z,2.15
2023-01-21T19:45:26.810Z,1.95
2023-01-21T19:47:54.745Z,2.00
2023-01-21T19:50:24.569Z,2.10
2023-01-21T19:52:54.720Z,1.93
2023-01-21T19:55:23.473Z,2.10
2023-01-21T19:57:56.470Z,2.30
2023-01-21T20:00:26.609Z,2.75
2023-01-21T20:02:54.246Z,2.80
2023-01-21T20:05:22.217Z,2.70
2023-01-21T20:07:51.032Z,1.77
2023-01-21T20:10:22.707Z,2.60
2023-01-21T20:12:51.211Z,2.50
2023-01-21T20:15:22.410Z,2.40
2023-01-21T20:17:52.817Z,2.20
2023-01-21T20:20:22.742Z,2.25
2023-01-21T20:22:50.632Z,2.50
2023-01-21T20:25:21.145Z,2.28
2023-01-21T20:27:51.932Z,2.42
2023-01-21T20:30:21.252Z,2.60
2023-01-21T20:32:49.287Z,2.25
2023-01-21T20:35:18.321Z,2.75
2023-01-21T20:37:48.989Z,2.22
2023-01-21T20:40:23.194Z,2.47
2023-01-21T20:42:52.198Z,2.00
2023-01-21T20:45:22.279Z,2.00
2023-01-21T20:47:53.697Z,1.90
2023-01-21T20:50:22.461Z,2.40
2023-01-21T20:52:50.457Z,1.45
2023-01-21T20:55:21.644Z,2.17
2023-01-21T20:57:49.673Z,1.92
2023-01-21T21:00:19.979Z,1.80
2023-01-21T21:02:49.119Z,1.90
2023-01-21T21:05:18.222Z,1.70
2023-01-21T21:07:45.822Z,1.80
2023-01-21T21:10:21.254Z,2.10
2023-01-21T21:12:51.388Z,1.98
2023-01-21T21:15:20.250Z,1.98
2023-01-21T21:17:48.335Z,1.85
2023-01-21T21:20:18.155Z,1.77
2023-01-21T21:22:45.797Z,2.13
2023-01-21T21:25:16.431Z,1.83
2023-01-21T21:27:44.970Z,2.25
2023-01-21T21:30:16.875Z,1.80
2023-01-21T21:32:44.382Z,1.57
2023-01-21T21:35:26.166Z,1.65
2023-01-21T21:37:54.983Z,1.98
2023-01-21T21:40:24.273Z,1.88
2023-01-21T21:43:10.418Z,2.40
2023-01-21T21:45:59.205Z,2.00
2023-01-21T21:48:38.971Z,1.98
2023-01-21T21:51:07.186Z,1.98
2023-01-21T21:53:34.653Z,2.10
2023-01-21T21:56:03.317Z,1.85
2023-01-21T21:58:30.747Z,1.73
2023-01-21T22:01:08.481Z,1.95
2023-01-21T22:03:35.997Z,2.25
2023-01-21T22:06:04.083Z,2.17
2023-01-21T22:08:32.691Z,1.90
2023-01-21T22:11:00.780Z,1.83
2023-01-21T22:13:29.009Z,1.85
2023-01-21T22:15:57.420Z,1.70
2023-01-21T22:18:28.052Z,1.58
2023-01-21T22:21:01.436Z,2.20
2023-01-21T22:23:29.877Z,1.73
2023-01-21T22:25:57.341Z,2.03
2023-01-21T22:28:24.793Z,1.63
2023-01-21T22:30:52.476Z,1.92
2023-01-21T22:33:22.201Z,2.25
2023-01-21T22:35:50.998Z,2.30
2023-01-21T22:38:19.450Z,1.75
2023-01-21T22:40:52.937Z,1.90
2023-01-21T22:43:21.015Z,2.10
2023-01-21T22:45:48.929Z,2.25
2023-01-21T22:48:16.641Z,2.13
2023-01-21T22:50:44.570Z,2.10
2023-01-21T22:53:13.777Z,2.00
2023-01-21T22:55:41.311Z,1.85
2023-01-21T22:58:08.676Z,1.70
2023-01-21T23:00:38.611Z,2.00
2023-01-21T23:03:07.004Z,2.10
2023-01-21T23:05:35.735Z,2.15
2023-01-21T23:08:03.167Z,2.13
2023-01-21T23:10:31.836Z,2.08
2023-01-21T23:12:59.192Z,2.00
2023-01-21T23:15:26.577Z,2.13
2023-01-21T23:17:53.997Z,2.03
2023-01-21T23:20:21.571Z,1.85
2023-01-21T23:22:48.949Z,1.95
2023-01-21T23:25:16.540Z,2.10
2023-01-21T23:27:46.118Z,2.40
2023-01-21T23:30:14.639Z,2.25
2023-01-21T23:32:42.289Z,1.90
2023-01-21T23:35:10.190Z,2.15
2023-01-21T23:37:37.962Z,1.90
2023-01-21T23:40:06.744Z,1.92
2023-01-21T23:42:34.002Z,1.85
2023-01-21T23:45:03.156Z,2.10
2023-01-21T23:47:30.442Z,2.13
2023-01-21T23:49:57.716Z,1.60
2023-01-21T23:52:25.623Z,1.52
2023-01-21T23:54:53.042Z,1.63
2023-01-21T23:57:20.351Z,1.90
2023-01-21T23:59:47.719Z,2.13
